Time;durP1;ratioP1;P1;durP2;ratioP2;P2;SDS_P1;SDS_P2;PMS_P1;PMS_P2;Temp;Humidity;BMP_temperature;BMP_pressure;BME280_temperature;BME280_humidity;BME280_pressure;Samples;Min_cycle;Max_cycle;Signal;HPM_P1;HPM_P2
2021/11/18 00:01:25;;;;;;;52.13;25.10;;;;;;;5.31;66.95;96060.97;5047043;28;20036;-76
2021/11/18 00:03:50;;;;;;;44.25;24.00;;;;;;;5.29;67.07;96060.25;5050559;28;20040;-75
2021/11/18 00:06:16;;;;;;;44.88;24.50;;;;;;;5.32;66.18;96055.53;5046214;28;20045;-76
2021/11/18 00:08:41;;;;;;;45.70;23.40;;;;;;;5.30;66.43;96064.63;5050486;28;20102;-75
2021/11/18 00:11:08;;;;;;;48.75;23.42;;;;;;;5.31;66.97;96067.16;5049153;28;20025;-76
2021/11/18 00:13:35;;;;;;;49.33;23.85;;;;;;;5.38;67.06;96063.97;5049370;28;20077;-75
2021/11/18 00:16:01;;;;;;;45.85;23.73;;;;;;;5.38;66.97;96059.50;5050371;28;20032;-75
2021/11/18 00:18:28;;;;;;;45.85;23.55;;;;;;;5.41;67.01;96061.06;5040186;28;20245;-76
2021/11/18 00:20:55;;;;;;;53.53;25.02;;;;;;;5.41;67.29;96061.06;5038593;28;20060;-76
2021/11/18 00:23:21;;;;;;;48.17;24.30;;;;;;;5.41;67.10;96055.75;5037990;28;20029;-76
2021/11/18 00:25:47;;;;;;;48.67;22.95;;;;;;;5.43;66.90;96053.81;5049913;28;20029;-76
2021/11/18 00:28:13;;;;;;;44.65;23.48;;;;;;;5.46;66.56;96050.03;5047568;28;20033;-76
2021/11/18 00:30:38;;;;;;;48.05;24.70;;;;;;;5.45;66.48;96057.16;5043233;28;20496;-77
2021/11/18 00:33:04;;;;;;;49.60;25.15;;;;;;;5.42;67.10;96058.28;5028465;28;20120;-79
2021/11/18 00:35:30;;;;;;;46.15;24.67;;;;;;;5.40;67.30;96052.22;5028014;28;20071;-76
2021/11/18 00:37:55;;;;;;;46.42;24.15;;;;;;;5.43;66.57;96048.47;5029180;28;20033;-75
2021/11/18 00:40:23;;;;;;;52.92;26.15;;;;;;;5.47;65.79;96049.03;5027472;28;20091;-76
2021/11/18 00:42:49;;;;;;;44.85;25.38;;;;;;;5.50;66.15;96054.09;5037459;28;20074;-75
2021/11/18 00:45:15;;;;;;;42.15;22.50;;;;;;;5.43;67.09;96051.16;5047529;28;20027;-78
2021/11/18 00:47:41;;;;;;;45.47;23.60;;;;;;;5.37;67.23;96055.16;5049858;28;20033;-76
2021/11/18 00:50:07;;;;;;;47.95;24.77;;;;;;;5.34;66.41;96055.41;5049109;28;20403;-76
2021/11/18 00:52:32;;;;;;;46.60;24.52;;;;;;;5.30;66.44;96052.16;5047095;28;20454;-76
2021/11/18 00:54:57;;;;;;;45.78;24.13;;;;;;;5.33;67.76;96051.06;5038175;28;20038;-78
2021/11/18 00:57:23;;;;;;;54.53;26.98;;;;;;;5.34;67.44;96052.75;5027309;28;20496;-76
2021/11/18 00:59:48;;;;;;;52.80;28.45;;;;;;;5.28;67.48;96051.47;5029905;28;20033;-74
2021/11/18 01:02:14;;;;;;;47.72;25.42;;;;;;;5.23;67.41;96047.47;5027415;28;20467;-76
2021/11/18 01:04:40;;;;;;;48.00;25.70;;;;;;;5.16;67.50;96044.47;5029313;28;20381;-78
2021/11/18 01:07:06;;;;;;;49.38;24.45;;;;;;;5.09;67.32;96044.19;5039475;28;20494;-77
2021/11/18 01:09:31;;;;;;;49.03;23.73;;;;;;;5.01;67.42;96042.16;5048616;28;20079;-76
2021/11/18 01:11:57;;;;;;;41.92;22.20;;;;;;;4.89;67.34;96051.13;5047675;28;20071;-77
2021/11/18 01:14:23;;;;;;;46.53;23.15;;;;;;;4.80;68.15;96047.41;5047551;28;20021;-76
2021/11/18 01:16:49;;;;;;;33.80;21.52;;;;;;;4.70;68.15;96049.97;5037625;28;20483;-75
2021/11/18 01:19:14;;;;;;;40.55;22.77;;;;;;;4.70;68.49;96050.84;5025728;28;20053;-75
2021/11/18 01:21:42;;;;;;;40.92;21.98;;;;;;;4.70;68.04;96048.19;5029389;28;20050;-75
2021/11/18 01:24:08;;;;;;;37.50;21.58;;;;;;;4.75;67.53;96053.13;5027120;28;20030;-76
2021/11/18 01:26:33;;;;;;;33.58;19.67;;;;;;;4.77;68.23;96053.00;5027485;28;20049;-75
2021/11/18 01:29:00;;;;;;;35.58;20.90;;;;;;;4.65;68.11;96054.81;5029134;28;20033;-75
2021/11/18 01:31:26;;;;;;;40.65;22.23;;;;;;;4.62;68.90;96058.59;5027793;28;20095;-75
2021/11/18 01:33:51;;;;;;;39.42;21.90;;;;;;;4.56;69.14;96051.94;5047007;28;20511;-76
2021/11/18 01:36:16;;;;;;;35.90;21.23;;;;;;;4.56;68.23;96046.63;5046705;28;20558;-76
2021/11/18 01:38:42;;;;;;;43.67;23.48;;;;;;;4.53;69.64;96049.53;5048529;28;20028;-76
2021/11/18 01:41:11;;;;;;;39.70;21.98;;;;;;;4.50;69.08;96049.78;5046242;28;20116;-75
2021/11/18 01:43:39;;;;;;;37.42;19.80;;;;;;;4.44;68.77;96055.59;5047174;28;20098;-74
2021/11/18 01:46:05;;;;;;;35.55;19.98;;;;;;;4.38;70.01;96054.28;5028149;28;20083;-75
2021/11/18 01:48:31;;;;;;;38.08;22.48;;;;;;;4.40;69.26;96047.00;5027741;28;20013;-76
2021/11/18 01:50:57;;;;;;;36.97;20.98;;;;;;;4.36;69.06;96045.59;5028511;28;20024;-75
2021/11/18 01:53:26;;;;;;;33.45;19.60;;;;;;;4.29;69.22;96047.88;5025408;28;20046;-75
2021/11/18 01:55:52;;;;;;;35.75;20.92;;;;;;;4.24;68.25;96047.41;5026861;28;20401;-76
2021/11/18 01:58:18;;;;;;;34.53;20.27;;;;;;;4.21;68.25;96050.31;5045389;28;20028;-76
2021/11/18 02:00:49;;;;;;;34.45;19.33;;;;;;;4.20;68.19;96048.63;5048277;28;20029;-76
2021/11/18 02:03:15;;;;;;;34.40;19.55;;;;;;;4.18;68.20;96043.44;5046629;28;20071;-76
2021/11/18 02:05:53;;;;;;;35.08;19.75;;;;;;;4.12;68.19;96045.72;5046687;28;20045;-75
2021/11/18 02:08:19;;;;;;;36.42;19.95;;;;;;;4.08;68.17;96045.97;5042135;28;20435;-76
2021/11/18 02:10:46;;;;;;;39.03;19.45;;;;;;;4.01;68.26;96051.88;5024790;28;20028;-76
2021/11/18 02:13:13;;;;;;;34.72;19.25;;;;;;;3.95;68.42;96055.84;5028239;28;20108;-75
2021/11/18 02:16:12;;;;;;;35.67;20.08;;;;;;;3.91;69.47;96055.28;5030295;28;20032;-77
2021/11/18 02:18:38;;;;;;;35.20;19.42;;;;;;;3.92;69.44;96054.28;5027566;28;20033;-75
2021/11/18 02:21:09;;;;;;;32.97;18.48;;;;;;;3.97;69.20;96056.59;5026298;28;20025;-76
2021/11/18 02:23:37;;;;;;;31.92;18.38;;;;;;;4.01;69.40;96060.72;5028839;28;20033;-77
2021/11/18 02:26:02;;;;;;;34.17;17.65;;;;;;;4.04;69.53;96059.59;5027868;28;20029;-78
2021/11/18 02:28:31;;;;;;;33.50;18.55;;;;;;;4.05;69.23;96064.81;5026006;28;20036;-77
2021/11/18 02:30:57;;;;;;;30.13;18.17;;;;;;;4.00;69.23;96061.66;5027924;28;20104;-76
2021/11/18 02:33:23;;;;;;;31.52;17.77;;;;;;;3.97;69.56;96063.72;5029949;28;20120;-75
2021/11/18 02:35:49;;;;;;;29.92;16.70;;;;;;;3.96;69.54;96062.88;5037567;28;20487;-75
2021/11/18 02:38:14;;;;;;;31.17;17.42;;;;;;;3.88;69.56;96065.28;5026953;28;20018;-76
2021/11/18 02:40:42;;;;;;;34.63;16.25;;;;;;;3.83;69.61;96058.53;5026643;28;20021;-75
2021/11/18 02:43:08;;;;;;;29.10;17.38;;;;;;;3.85;69.16;96063.72;5028084;28;20111;-75
2021/11/18 02:45:35;;;;;;;32.55;16.45;;;;;;;3.91;68.04;96063.22;5028715;28;20037;-75
2021/11/18 02:48:00;;;;;;;31.60;16.80;;;;;;;3.81;68.14;96067.56;5029266;28;20025;-76
2021/11/18 02:50:29;;;;;;;28.88;16.85;;;;;;;3.65;67.57;96067.91;5025371;28;20033;-76
2021/11/18 02:52:56;;;;;;;31.90;16.80;;;;;;;3.66;68.71;96075.72;5027466;28;20037;-76
2021/11/18 02:55:25;;;;;;;32.63;17.00;;;;;;;3.67;68.01;96076.59;5024912;28;20059;-76
2021/11/18 02:57:50;;;;;;;31.02;17.02;;;;;;;3.62;68.90;96073.44;5036802;28;20602;-75
2021/11/18 03:00:28;;;;;;;33.42;17.63;;;;;;;3.61;69.06;96074.41;5027474;28;20034;-76
2021/11/18 03:02:53;;;;;;;29.60;16.05;;;;;;;3.55;69.27;96071.25;5025190;28;20124;-76
2021/11/18 03:05:19;;;;;;;33.95;17.63;;;;;;;3.53;69.77;96077.66;5027280;28;20112;-76
2021/11/18 03:07:45;;;;;;;31.83;16.45;;;;;;;3.48;69.43;96071.84;5025094;28;20527;-75
2021/11/18 03:10:11;;;;;;;41.00;18.88;;;;;;;3.41;69.48;96071.47;5042176;28;20051;-77
2021/11/18 03:12:37;;;;;;;36.72;18.50;;;;;;;3.40;70.15;96072.44;5045843;28;20488;-76
2021/11/18 03:15:04;;;;;;;46.80;21.08;;;;;;;3.38;70.37;96071.69;5044946;28;20033;-76
2021/11/18 03:17:29;;;;;;;48.55;20.25;;;;;;;3.36;70.47;96068.31;5046784;28;20033;-75
2021/11/18 03:19:55;;;;;;;40.42;19.98;;;;;;;3.34;70.34;96071.94;5044972;28;20017;-75
2021/11/18 03:22:20;;;;;;;34.63;17.83;;;;;;;3.27;70.49;96069.88;5030023;28;20147;-75
2021/11/18 03:24:46;;;;;;;39.58;19.83;;;;;;;3.30;70.67;96070.50;5023911;28;20021;-76
2021/11/18 03:27:11;;;;;;;60.90;26.08;;;;;;;3.27;70.62;96065.41;5026899;28;20481;-77
2021/11/18 03:29:37;;;;;;;57.33;27.25;;;;;;;3.28;70.61;96072.41;5040636;28;20499;-75
2021/11/18 03:32:03;;;;;;;48.30;26.00;;;;;;;3.22;70.89;96073.69;5045050;28;20480;-76
2021/11/18 03:34:29;;;;;;;54.70;28.30;;;;;;;3.25;70.97;96075.28;5026225;28;20030;-76
2021/11/18 03:36:55;;;;;;;74.68;41.47;;;;;;;3.33;70.73;96080.88;5026261;28;20033;-75
2021/11/18 03:39:21;;;;;;;69.72;38.17;;;;;;;3.39;70.29;96084.00;5026788;28;20476;-74
2021/11/18 03:41:49;;;;;;;67.10;35.42;;;;;;;3.47;70.41;96081.59;5024989;28;20022;-74
2021/11/18 03:44:15;;;;;;;62.88;33.00;;;;;;;3.44;70.49;96088.00;5026862;28;20507;-75
2021/11/18 03:46:49;;;;;;;54.50;27.77;;;;;;;3.48;70.65;96093.06;5043246;28;20029;-75
2021/11/18 03:49:15;;;;;;;51.42;29.50;;;;;;;3.47;70.81;96092.22;5046630;28;20025;-77
2021/11/18 03:51:40;;;;;;;53.92;29.80;;;;;;;3.48;70.70;96093.94;5043767;28;20175;-77
2021/11/18 03:54:07;;;;;;;52.22;29.38;;;;;;;3.56;71.15;96096.00;5045613;28;20024;-78
2021/11/18 03:56:34;;;;;;;51.38;26.20;;;;;;;3.56;70.78;96083.56;5046603;28;20025;-75
2021/11/18 03:59:01;;;;;;;51.10;25.02;;;;;;;3.57;70.22;96087.91;5043162;28;20104;-74
2021/11/18 04:01:26;;;;;;;72.10;25.00;;;;;;;3.58;69.87;96086.94;5033234;28;20109;-76
2021/11/18 04:03:54;;;;;;;48.28;21.70;;;;;;;3.65;69.87;96075.84;5023228;28;20041;-76
2021/11/18 04:06:19;;;;;;;41.72;20.77;;;;;;;3.68;70.38;96083.56;5023013;28;20057;-78
2021/11/18 04:08:45;;;;;;;40.28;20.48;;;;;;;3.67;69.75;96079.25;5026163;28;20041;-78
2021/11/18 04:11:10;;;;;;;36.92;20.27;;;;;;;3.70;69.99;96073.69;5046040;28;20404;-75
2021/11/18 04:13:36;;;;;;;36.22;20.42;;;;;;;3.66;70.20;96073.09;5029897;28;20489;-76
2021/11/18 04:16:01;;;;;;;38.58;19.83;;;;;;;3.69;69.56;96064.88;5024956;28;20036;-76
2021/11/18 04:18:28;;;;;;;40.92;19.42;;;;;;;3.72;70.01;96063.81;5026510;28;20152;-76
2021/11/18 04:20:54;;;;;;;40.35;19.98;;;;;;;3.83;69.45;96068.28;5024909;28;20447;-76
2021/11/18 04:23:22;;;;;;;38.88;20.83;;;;;;;3.70;70.04;96068.38;5025171;28;20099;-76
2021/11/18 04:25:47;;;;;;;40.08;20.85;;;;;;;3.69;70.10;96069.38;5039376;28;20043;-77
2021/11/18 04:28:13;;;;;;;40.10;21.02;;;;;;;3.68;70.71;96076.47;5046336;28;20033;-77
2021/11/18 04:30:43;;;;;;;36.47;20.23;;;;;;;3.68;70.39;96067.66;5047531;28;20029;-77
2021/11/18 04:33:08;;;;;;;34.75;19.20;;;;;;;3.82;70.62;96075.41;5048791;28;20039;-77
2021/11/18 04:35:34;;;;;;;36.70;19.13;;;;;;;3.74;70.55;96064.53;5048286;28;20033;-76
2021/11/18 04:37:59;;;;;;;37.13;20.92;;;;;;;3.73;70.45;96069.94;5046433;28;20029;-74
2021/11/18 04:40:25;;;;;;;33.28;18.90;;;;;;;3.83;70.34;96070.94;5050734;28;20491;-74
2021/11/18 04:42:50;;;;;;;33.67;19.33;;;;;;;3.98;70.36;96063.59;5054209;28;20502;-76
2021/11/18 04:45:18;;;;;;;33.03;18.73;;;;;;;3.91;69.92;96071.19;5055351;28;20037;-76
2021/11/18 04:47:43;;;;;;;37.35;18.63;;;;;;;4.03;69.61;96071.22;5047120;28;20033;-76
2021/11/18 04:50:09;;;;;;;40.42;18.58;;;;;;;4.00;69.78;96071.44;5029298;28;20404;-76
2021/11/18 04:52:35;;;;;;;29.85;16.88;;;;;;;4.00;69.95;96066.97;5044609;28;20431;-77
2021/11/18 04:55:00;;;;;;;36.08;18.48;;;;;;;3.90;69.97;96071.31;5046361;28;20032;-77
2021/11/18 04:57:28;;;;;;;34.45;17.88;;;;;;;3.89;69.70;96072.25;5049561;28;20032;-76
2021/11/18 04:59:55;;;;;;;37.28;17.95;;;;;;;3.94;69.34;96078.06;5047587;28;20090;-75
2021/11/18 05:02:21;;;;;;;31.50;17.77;;;;;;;3.78;69.72;96083.72;5028871;28;20098;-76
2021/11/18 05:04:49;;;;;;;33.42;18.30;;;;;;;3.75;70.46;96089.25;5027522;28;20494;-77
2021/11/18 05:07:17;;;;;;;35.15;18.83;;;;;;;3.78;70.44;96089.03;5039599;28;20045;-77
2021/11/18 05:09:42;;;;;;;30.45;18.10;;;;;;;3.78;69.86;96096.97;5047214;28;20031;-77
2021/11/18 05:12:08;;;;;;;30.52;17.85;;;;;;;3.80;69.10;96093.25;5046570;28;20021;-78
2021/11/18 05:14:34;;;;;;;36.95;19.50;;;;;;;3.68;69.58;96099.50;5045530;28;20044;-74
2021/11/18 05:16:59;;;;;;;38.47;20.70;;;;;;;3.81;69.67;96088.78;5035827;28;20415;-75
2021/11/18 05:19:25;;;;;;;43.05;22.35;;;;;;;3.80;69.47;96101.22;5062648;28;20494;-76
2021/11/18 05:21:51;;;;;;;45.75;22.98;;;;;;;3.72;69.57;96106.28;5052711;28;20041;-76
2021/11/18 05:24:16;;;;;;;41.42;21.92;;;;;;;3.74;69.71;96122.06;5047761;28;20043;-75
2021/11/18 05:26:42;;;;;;;40.20;20.48;;;;;;;3.70;69.84;96117.00;5047275;28;20542;-75
2021/11/18 05:41:08;;;;;;;34.53;21.48;;;;;;;4.50;67.76;96126.00;5124558;27;20383;-75
2021/11/18 05:43:35;;;;;;;40.97;21.48;;;;;;;4.38;67.36;96126.00;5120347;28;20035;-76
2021/11/18 05:46:01;;;;;;;33.53;19.63;;;;;;;4.27;67.91;96118.84;5123861;28;20488;-77
2021/11/18 05:48:27;;;;;;;32.10;17.75;;;;;;;4.24;68.01;96132.38;5121626;27;20122;-77
2021/11/18 05:50:55;;;;;;;34.17;18.50;;;;;;;4.22;68.38;96128.16;5123201;27;21433;-77
2021/11/18 05:53:25;;;;;;;33.58;17.45;;;;;;;4.19;68.13;96138.03;5118855;28;20019;-77
2021/11/18 05:55:51;;;;;;;33.80;20.42;;;;;;;4.17;68.37;96136.50;5112084;28;20096;-78
2021/11/18 05:58:17;;;;;;;33.50;20.60;;;;;;;4.17;68.16;96136.50;5115017;28;20063;-77
2021/11/18 06:00:42;;;;;;;39.58;20.83;;;;;;;4.13;68.82;96140.31;5115424;28;20023;-79
2021/11/18 06:03:07;;;;;;;39.78;21.92;;;;;;;4.15;68.65;96133.09;5114536;28;20081;-78
2021/11/18 06:05:33;;;;;;;38.58;21.85;;;;;;;4.24;68.57;96131.56;5115578;28;20024;-79
2021/11/18 06:07:58;;;;;;;38.20;22.67;;;;;;;4.17;67.97;96126.72;5112705;27;20482;-78
2021/11/18 06:10:25;;;;;;;41.22;21.83;;;;;;;4.17;69.19;96132.03;5116123;28;20028;-77
2021/11/18 06:12:51;;;;;;;39.20;22.08;;;;;;;4.20;69.04;96136.25;5112649;28;20020;-79
2021/11/18 06:15:16;;;;;;;42.80;24.05;;;;;;;4.23;68.73;96140.47;5115355;28;20060;-78
2021/11/18 06:17:42;;;;;;;49.65;23.98;;;;;;;4.21;69.33;96137.94;5114058;28;20019;-78
2021/11/18 06:20:08;;;;;;;44.95;22.98;;;;;;;4.26;68.59;96141.06;5125371;27;20508;-77
2021/11/18 06:22:34;;;;;;;39.78;23.23;;;;;;;4.35;69.09;96141.31;5122956;27;20039;-79
2021/11/18 06:25:00;;;;;;;47.63;23.70;;;;;;;4.36;69.24;96148.31;5124868;27;20015;-80
2021/11/18 06:27:25;;;;;;;47.97;24.38;;;;;;;4.37;69.51;96142.88;5123646;28;20049;-78
2021/11/18 06:29:51;;;;;;;49.00;24.85;;;;;;;4.37;69.93;96147.38;5123424;27;20027;-79
2021/11/18 06:32:17;;;;;;;44.33;24.42;;;;;;;4.40;69.94;96144.47;5097854;28;20028;-78
2021/11/18 06:34:42;;;;;;;53.08;25.75;;;;;;;4.49;69.79;96151.72;5110023;27;20050;-77
2021/11/18 06:37:08;;;;;;;45.50;24.13;;;;;;;4.52;70.07;96145.28;5130351;27;20027;-79
2021/11/18 06:39:35;;;;;;;43.10;23.17;;;;;;;4.54;70.36;96154.84;5119791;27;20052;-80
2021/11/18 06:42:03;;;;;;;40.00;22.92;;;;;;;4.56;69.05;96154.72;5112233;27;20107;-79
2021/11/18 06:44:28;;;;;;;39.97;23.23;;;;;;;4.53;69.36;96150.47;5090492;28;20032;-79
2021/11/18 06:46:54;;;;;;;43.05;23.55;;;;;;;4.51;69.37;96160.41;5082010;28;20479;-79
2021/11/18 06:49:19;;;;;;;42.28;22.67;;;;;;;4.55;69.22;96163.66;5110027;28;20020;-79
2021/11/18 06:51:46;;;;;;;48.28;24.38;;;;;;;4.55;69.72;96166.31;5089402;28;20020;-78
2021/11/18 06:54:12;;;;;;;42.65;24.27;;;;;;;4.65;69.73;96171.75;5091062;28;20040;-78
2021/11/18 06:56:38;;;;;;;41.13;22.38;;;;;;;4.73;69.33;96168.47;5087789;28;20121;-78
2021/11/18 06:59:04;;;;;;;41.60;22.42;;;;;;;4.78;69.38;96175.13;5090730;28;20410;-78
2021/11/18 07:01:29;;;;;;;42.95;23.83;;;;;;;4.78;68.85;96172.47;5089368;28;20106;-80
2021/11/18 07:03:55;;;;;;;41.53;24.45;;;;;;;4.79;69.39;96168.81;5093679;28;20485;-78
2021/11/18 07:06:21;;;;;;;41.80;24.08;;;;;;;4.81;69.61;96171.38;5109723;28;20016;-79
2021/11/18 07:08:47;;;;;;;46.47;24.75;;;;;;;4.85;69.26;96161.34;5108098;28;20031;-81
2021/11/18 07:11:13;;;;;;;39.67;24.20;;;;;;;4.93;68.43;96170.38;5110906;28;20034;-78
2021/11/18 07:13:39;;;;;;;44.45;24.40;;;;;;;4.90;69.15;96177.78;5105904;28;20501;-79
2021/11/18 07:16:06;;;;;;;44.92;25.42;;;;;;;4.88;69.47;96177.03;5109579;28;20039;-77
2021/11/18 07:18:32;;;;;;;36.63;23.15;;;;;;;5.02;68.99;96184.75;5109492;28;20032;-79
2021/11/18 07:20:57;;;;;;;44.97;24.75;;;;;;;5.00;69.33;96177.88;5100135;28;20035;-75
2021/11/18 07:23:23;;;;;;;44.90;25.48;;;;;;;4.95;69.16;96178.22;5093061;28;20034;-78
2021/11/18 07:25:51;;;;;;;51.03;25.85;;;;;;;4.99;69.64;96179.69;5098079;28;20077;-78
2021/11/18 07:28:17;;;;;;;48.38;25.52;;;;;;;4.99;69.41;96182.34;5093279;28;20035;-77
2021/11/18 07:30:43;;;;;;;53.25;26.38;;;;;;;5.00;69.27;96189.34;5102371;28;20050;-78
2021/11/18 07:33:09;;;;;;;48.17;26.98;;;;;;;5.03;69.93;96186.44;5107490;28;20440;-77
2021/11/18 07:35:34;;;;;;;47.30;25.45;;;;;;;5.05;69.43;96183.66;5101243;28;20481;-77
2021/11/18 07:38:00;;;;;;;48.75;23.98;;;;;;;5.13;69.43;96183.03;5110058;28;20056;-79
2021/11/18 07:40:25;;;;;;;43.83;22.73;;;;;;;5.23;68.84;96177.81;5090818;28;20048;-77
2021/11/18 07:42:51;;;;;;;37.08;21.15;;;;;;;5.29;68.84;96182.63;5088914;28;20028;-76
2021/11/18 07:45:17;;;;;;;38.10;20.92;;;;;;;5.36;67.71;96177.66;5091994;28;20080;-77
2021/11/18 07:47:42;;;;;;;38.53;20.98;;;;;;;5.40;68.35;96187.91;5102455;28;20031;-79
2021/11/18 07:50:08;;;;;;;36.05;21.77;;;;;;;5.35;69.37;96186.59;5108828;28;20024;-77
2021/11/18 07:52:34;;;;;;;38.20;20.40;;;;;;;5.39;69.08;96188.03;5100481;28;20027;-77
2021/11/18 07:55:00;;;;;;;39.58;21.65;;;;;;;5.44;68.33;96188.50;5107854;28;20481;-77
2021/11/18 07:57:25;;;;;;;45.63;24.55;;;;;;;5.46;69.04;96186.56;5108849;28;20088;-77
2021/11/18 07:59:51;;;;;;;49.65;26.25;;;;;;;5.47;68.90;96193.56;5109135;27;20390;-76
2021/11/18 08:02:16;;;;;;;41.15;24.00;;;;;;;5.49;68.08;96194.31;5108310;28;20032;-78
2021/11/18 08:04:42;;;;;;;49.38;25.55;;;;;;;5.40;68.92;96187.09;5108586;28;20028;-75
2021/11/18 08:07:09;;;;;;;45.30;23.92;;;;;;;5.51;68.83;96178.22;5109316;28;20028;-77
2021/11/18 08:09:34;;;;;;;41.08;21.92;;;;;;;5.45;68.84;96179.53;5108211;28;20557;-77
2021/11/18 08:12:01;;;;;;;37.95;21.45;;;;;;;5.52;67.53;96183.41;5109512;28;20108;-76
2021/11/18 08:14:26;;;;;;;33.70;19.75;;;;;;;5.64;67.59;96186.84;5108031;28;20074;-77
2021/11/18 08:16:52;;;;;;;43.67;20.35;;;;;;;5.69;66.67;96191.81;5108199;28;20102;-79
2021/11/18 08:19:18;;;;;;;36.67;20.40;;;;;;;5.59;67.52;96190.88;5108723;28;20035;-77
2021/11/18 08:21:44;;;;;;;43.15;20.08;;;;;;;5.62;67.00;96188.81;5108619;28;20050;-78
2021/11/18 08:24:11;;;;;;;42.55;22.35;;;;;;;5.68;67.89;96195.44;5107966;28;20102;-78
2021/11/18 08:26:36;;;;;;;36.35;20.38;;;;;;;5.73;67.17;96198.56;5106787;28;20020;-76
2021/11/18 08:29:02;;;;;;;38.10;20.63;;;;;;;5.77;68.14;96194.66;5109272;28;20023;-77
2021/11/18 08:31:28;;;;;;;36.65;21.17;;;;;;;5.85;67.19;96202.00;5108006;28;20422;-76
2021/11/18 08:33:53;;;;;;;42.72;23.10;;;;;;;5.90;67.35;96204.31;5109276;28;20081;-77
2021/11/18 08:36:19;;;;;;;40.67;21.52;;;;;;;6.02;67.51;96197.94;5107623;28;20028;-76
2021/11/18 08:38:45;;;;;;;35.38;20.85;;;;;;;6.08;66.77;96203.75;5108721;28;20040;-77
2021/11/18 08:41:11;;;;;;;41.00;23.08;;;;;;;6.12;67.06;96202.50;5106878;28;20403;-75
2021/11/18 08:43:39;;;;;;;38.45;21.58;;;;;;;6.13;66.78;96209.50;5107969;28;20078;-77
2021/11/18 08:46:05;;;;;;;32.90;19.00;;;;;;;6.18;66.40;96205.50;5108904;28;20023;-77
2021/11/18 08:48:31;;;;;;;33.95;17.75;;;;;;;6.15;66.43;96204.91;5107500;28;20028;-78
2021/11/18 08:50:56;;;;;;;30.25;17.63;;;;;;;6.17;65.96;96206.47;5108794;28;20077;-76
2021/11/18 08:53:24;;;;;;;30.75;18.00;;;;;;;6.22;66.57;96214.09;5107237;28;20034;-77
2021/11/18 08:55:49;;;;;;;28.73;17.05;;;;;;;6.08;67.49;96207.25;5107551;28;20035;-78
2021/11/18 08:58:17;;;;;;;36.10;16.35;;;;;;;6.13;67.24;96209.50;5107971;28;20065;-77
2021/11/18 09:00:48;;;;;;;25.50;15.20;;;;;;;6.24;66.63;96211.28;5106827;28;20510;-76
2021/11/18 09:03:15;;;;;;;34.92;17.00;;;;;;;6.32;66.68;96211.47;5107007;28;20024;-77
2021/11/18 09:05:41;;;;;;;33.50;17.35;;;;;;;6.32;66.36;96206.13;5107073;28;20026;-77
2021/11/18 09:08:06;;;;;;;32.67;17.63;;;;;;;6.29;67.07;96209.91;5108647;28;20401;-77
2021/11/18 09:10:33;;;;;;;29.27;17.50;;;;;;;6.33;66.99;96209.66;5107415;28;20019;-77
2021/11/18 09:12:58;;;;;;;31.10;17.73;;;;;;;6.37;67.58;96216.38;5107527;28;20038;-76
2021/11/18 09:15:25;;;;;;;28.27;17.98;;;;;;;6.44;67.10;96220.22;5106081;28;20027;-78
2021/11/18 09:17:50;;;;;;;26.38;16.85;;;;;;;6.46;67.54;96218.28;5108008;28;20107;-77
2021/11/18 09:20:25;;;;;;;29.77;16.38;;;;;;;6.50;67.09;96213.50;5106988;28;20581;-75
2021/11/18 09:22:57;;;;;;;28.52;17.08;;;;;;;6.55;67.47;96219.31;5105637;28;20084;-77
2021/11/18 09:25:24;;;;;;;29.42;16.55;;;;;;;6.65;67.06;96214.03;5107199;28;20024;-76
2021/11/18 09:27:51;;;;;;;27.75;17.05;;;;;;;6.66;67.27;96207.72;5106763;28;20485;-80
2021/11/18 09:30:33;;;;;;;27.83;16.55;;;;;;;6.76;67.06;96210.41;5108136;28;20027;-80
2021/11/18 09:32:59;;;;;;;26.70;14.40;;;;;;;6.87;66.81;96210.31;5106527;28;20048;-76
2021/11/18 09:35:28;;;;;;;23.83;14.98;;;;;;;6.97;66.16;96207.69;5106006;28;20031;-76
2021/11/18 09:37:53;;;;;;;25.67;13.85;;;;;;;6.99;66.88;96211.09;5108519;28;20485;-76
2021/11/18 09:40:21;;;;;;;27.95;15.30;;;;;;;7.03;66.76;96201.81;5106915;28;20045;-78
2021/11/18 09:43:29;;;;;;;23.88;13.93;;;;;;;7.01;66.46;96203.78;5107084;28;20460;-77
2021/11/18 09:46:12;;;;;;;24.02;14.38;;;;;;;7.07;66.90;96214.88;5106627;28;20034;-76
2021/11/18 09:49:05;;;;;;;20.65;13.18;;;;;;;7.01;66.77;96208.28;5106541;28;20024;-77
2021/11/18 09:52:03;;;;;;;26.85;14.23;;;;;;;7.01;66.92;96209.09;5108076;28;20024;-78
2021/11/18 09:54:53;;;;;;;21.90;13.38;;;;;;;7.05;66.84;96212.34;5081290;28;20051;-76
2021/11/18 09:57:31;;;;;;;22.10;12.95;;;;;;;7.09;67.08;96202.25;5105229;28;20072;-76
2021/11/18 10:00:06;;;;;;;21.90;13.07;;;;;;;7.12;66.78;96200.19;5106911;28;20209;-77
2021/11/18 10:02:45;;;;;;;23.23;13.90;;;;;;;7.18;66.91;96198.78;5106420;28;20023;-76
2021/11/18 10:05:17;;;;;;;25.95;13.95;;;;;;;7.25;67.10;96194.59;5108090;28;20012;-78
2021/11/18 10:07:49;;;;;;;23.33;14.55;;;;;;;7.33;66.53;96190.38;5106519;28;20022;-76
2021/11/18 10:10:47;;;;;;;21.48;13.52;;;;;;;7.39;66.03;96189.81;5089345;28;20144;-77
2021/11/18 10:13:35;;;;;;;23.33;13.68;;;;;;;7.47;65.99;96183.78;5107545;28;20031;-76
2021/11/18 10:16:21;;;;;;;24.38;14.70;;;;;;;7.52;65.62;96185.06;5107458;28;20031;-80
2021/11/18 10:18:49;;;;;;;24.23;14.55;;;;;;;7.59;65.41;96180.03;5109505;28;20023;-77
2021/11/18 10:21:19;;;;;;;24.92;14.57;;;;;;;7.67;65.28;96176.66;5111671;28;20031;-79
2021/11/18 10:23:46;;;;;;;27.40;15.13;;;;;;;7.64;65.15;96176.94;5108657;28;20035;-77
2021/11/18 10:26:24;;;;;;;25.23;14.27;;;;;;;7.70;65.00;96175.50;5110514;28;20028;-78
2021/11/18 10:29:06;;;;;;;22.23;13.75;;;;;;;7.83;64.80;96172.56;5109325;28;20516;-78
2021/11/18 10:31:49;;;;;;;24.92;14.50;;;;;;;7.89;64.45;96161.31;5110332;28;20062;-78
2021/11/18 10:34:14;;;;;;;28.13;14.50;;;;;;;7.96;64.21;96165.09;5110408;28;20508;-77
2021/11/18 10:36:55;;;;;;;21.35;13.60;;;;;;;8.03;63.76;96160.88;5109733;28;20023;-78
2021/11/18 10:39:36;;;;;;;24.10;14.50;;;;;;;8.14;63.67;96165.19;5111360;28;20059;-78
2021/11/18 10:42:09;;;;;;;26.92;15.73;;;;;;;8.18;63.65;96159.56;5109331;28;20486;-79
2021/11/18 10:44:47;;;;;;;23.10;13.75;;;;;;;8.26;62.25;96151.69;5109187;28;20039;-78
2021/11/18 10:47:36;;;;;;;29.08;15.75;;;;;;;8.39;62.45;96165.56;5108375;28;20031;-81
2021/11/18 10:50:26;;;;;;;24.27;14.10;;;;;;;8.41;61.85;96141.38;5108920;28;20244;-78
2021/11/18 10:53:15;;;;;;;28.77;14.43;;;;;;;8.55;61.06;96149.91;5109023;28;20054;-77
2021/11/18 10:55:46;;;;;;;25.88;15.00;;;;;;;8.62;60.71;96149.22;5108148;28;20493;-78
2021/11/18 10:58:14;;;;;;;25.63;14.48;;;;;;;8.73;60.33;96145.50;5107511;28;20104;-78
2021/11/18 11:00:41;;;;;;;33.65;14.65;;;;;;;8.73;59.49;96140.16;5109002;28;20055;-78
2021/11/18 11:03:34;;;;;;;32.38;15.02;;;;;;;8.74;58.84;96128.44;5108729;28;20035;-78
2021/11/18 11:06:23;;;;;;;26.48;13.40;;;;;;;8.82;59.10;96133.06;5109235;28;20031;-82
2021/11/18 11:09:04;;;;;;;26.05;15.30;;;;;;;8.87;58.00;96119.22;5107974;28;20036;-77
2021/11/18 11:11:37;;;;;;;21.83;14.23;;;;;;;8.96;58.20;96126.38;5107408;28;20505;-78
2021/11/18 11:14:40;;;;;;;24.13;13.35;;;;;;;8.91;57.28;96117.97;5107920;28;20051;-79
2021/11/18 11:17:29;;;;;;;20.95;13.23;;;;;;;8.85;57.29;96134.63;5109138;27;20489;-77
2021/11/18 11:20:13;;;;;;;22.77;13.18;;;;;;;8.85;56.33;96118.56;5106996;28;20516;-79
2021/11/18 11:22:58;;;;;;;22.27;12.65;;;;;;;8.83;56.78;96117.84;5108797;28;20500;-82
2021/11/18 11:25:27;;;;;;;28.83;14.48;;;;;;;8.88;56.05;96131.63;5087094;28;20123;-77
2021/11/18 11:28:01;;;;;;;23.38;14.88;;;;;;;8.86;55.31;96128.25;5106683;28;20039;-78
2021/11/18 11:30:54;;;;;;;20.70;13.52;;;;;;;8.89;55.15;96114.59;5108638;28;20030;-81
2021/11/18 11:33:45;;;;;;;24.80;14.35;;;;;;;8.85;54.96;96131.94;5107054;28;20027;-80
2021/11/18 11:36:19;;;;;;;30.50;14.90;;;;;;;8.74;56.17;96123.09;5108571;28;20061;-76
2021/11/18 11:39:14;;;;;;;26.13;14.00;;;;;;;8.70;55.64;96132.44;5108282;28;20023;-77
2021/11/18 11:41:57;;;;;;;24.70;14.80;;;;;;;8.60;55.81;96123.59;5107692;28;20058;-79
2021/11/18 11:44:23;;;;;;;26.70;15.88;;;;;;;8.44;56.68;96130.38;5108608;28;20069;-78